sensor_id;sensor_type;location;lat;lon;timestamp;temperature;humidity
8008;DHT22;4049;49.468;11.200;2023-09-07T00:01:29;15.80;99.90
8008;DHT22;4049;49.468;11.200;2023-09-07T00:03:56;15.70;99.90
8008;DHT22;4049;49.468;11.200;2023-09-07T00:06:23;15.60;99.90
8008;DHT22;4049;49.468;11.200;2023-09-07T00:08:51;15.60;99.90
8008;DHT22;4049;49.468;11.200;2023-09-07T00:11:18;15.50;99.90
8008;DHT22;4049;49.468;11.200;2023-09-07T00:13:45;15.50;99.90
8008;DHT22;4049;49.468;11.200;2023-09-07T00:16:12;15.50;99.90
8008;DHT22;4049;49.468;11.200;2023-09-07T00:18:38;15.60;99.90
8008;DHT22;4049;49.468;11.200;2023-09-07T00:21:05;15.50;99.90
8008;DHT22;4049;49.468;11.200;2023-09-07T00:23:32;15.40;99.90
8008;DHT22;4049;49.468;11.200;2023-09-07T00:26:00;15.40;99.90
8008;DHT22;4049;49.468;11.200;2023-09-07T00:28:27;15.40;99.90
8008;DHT22;4049;49.468;11.200;2023-09-07T00:30:54;15.30;99.90
8008;DHT22;4049;49.468;11.200;2023-09-07T00:33:21;15.30;99.90
8008;DHT22;4049;49.468;11.200;2023-09-07T00:35:48;15.30;99.90
8008;DHT22;4049;49.468;11.200;2023-09-07T00:38:15;15.20;99.90
8008;DHT22;4049;49.468;11.200;2023-09-07T00:40:43;15.20;99.90
8008;DHT22;4049;49.468;11.200;2023-09-07T00:43:12;15.20;99.90
8008;DHT22;4049;49.468;11.200;2023-09-07T00:45:39;15.20;99.90
8008;DHT22;4049;49.468;11.200;2023-09-07T00:48:06;15.20;99.90
8008;DHT22;4049;49.468;11.200;2023-09-07T00:50:33;15.20;99.90
8008;DHT22;4049;49.468;11.200;2023-09-07T00:53:00;15.10;99.90
8008;DHT22;4049;49.468;11.200;2023-09-07T00:55:28;15.10;99.90
8008;DHT22;4049;49.468;11.200;2023-09-07T00:57:58;15.10;99.90
8008;DHT22;4049;49.468;11.200;2023-09-07T01:00:26;15.20;99.90
8008;DHT22;4049;49.468;11.200;2023-09-07T01:02:53;15.10;99.90
8008;DHT22;4049;49.468;11.200;2023-09-07T01:05:23;15.10;99.90
8008;DHT22;4049;49.468;11.200;2023-09-07T01:07:55;15.10;99.90
8008;DHT22;4049;49.468;11.200;2023-09-07T01:10:24;15.00;99.90
8008;DHT22;4049;49.468;11.200;2023-09-07T01:12:50;15.00;99.90
8008;DHT22;4049;49.468;11.200;2023-09-07T01:15:17;15.00;99.90
8008;DHT22;4049;49.468;11.200;2023-09-07T01:17:46;15.00;99.90
8008;DHT22;4049;49.468;11.200;2023-09-07T01:20:13;15.00;99.90
8008;DHT22;4049;49.468;11.200;2023-09-07T01:22:43;15.00;99.90
8008;DHT22;4049;49.468;11.200;2023-09-07T01:25:11;14.90;99.90
8008;DHT22;4049;49.468;11.200;2023-09-07T01:27:38;14.90;99.90
8008;DHT22;4049;49.468;11.200;2023-09-07T01:30:06;14.80;99.90
8008;DHT22;4049;49.468;11.200;2023-09-07T01:32:34;14.80;99.90
8008;DHT22;4049;49.468;11.200;2023-09-07T01:35:01;14.80;99.90
8008;DHT22;4049;49.468;11.200;2023-09-07T01:37:29;14.80;99.90
8008;DHT22;4049;49.468;11.200;2023-09-07T01:39:57;14.70;99.90
8008;DHT22;4049;49.468;11.200;2023-09-07T01:42:24;14.60;99.90
8008;DHT22;4049;49.468;11.200;2023-09-07T01:44:51;14.60;99.90
8008;DHT22;4049;49.468;11.200;2023-09-07T01:47:18;14.50;99.90
8008;DHT22;4049;49.468;11.200;2023-09-07T01:49:45;14.50;99.90
8008;DHT22;4049;49.468;11.200;2023-09-07T01:52:12;14.50;99.90
8008;DHT22;4049;49.468;11.200;2023-09-07T01:54:38;14.50;99.90
8008;DHT22;4049;49.468;11.200;2023-09-07T01:57:06;14.50;99.90
8008;DHT22;4049;49.468;11.200;2023-09-07T01:59:33;14.50;99.90
8008;DHT22;4049;49.468;11.200;2023-09-07T02:02:00;14.50;99.90
8008;DHT22;4049;49.468;11.200;2023-09-07T02:04:27;14.50;99.90
8008;DHT22;4049;49.468;11.200;2023-09-07T02:06:53;14.40;99.90
8008;DHT22;4049;49.468;11.200;2023-09-07T02:09:20;14.40;99.90
8008;DHT22;4049;49.468;11.200;2023-09-07T02:11:47;14.40;99.90
8008;DHT22;4049;49.468;11.200;2023-09-07T02:14:15;14.30;99.90
8008;DHT22;4049;49.468;11.200;2023-09-07T02:16:42;14.30;99.90
8008;DHT22;4049;49.468;11.200;2023-09-07T02:19:10;14.30;99.90
8008;DHT22;4049;49.468;11.200;2023-09-07T02:21:36;14.20;99.90
8008;DHT22;4049;49.468;11.200;2023-09-07T02:24:04;14.20;99.90
8008;DHT22;4049;49.468;11.200;2023-09-07T02:26:31;14.20;99.90
8008;DHT22;4049;49.468;11.200;2023-09-07T02:28:57;14.10;99.90
8008;DHT22;4049;49.468;11.200;2023-09-07T02:31:25;14.10;99.90
8008;DHT22;4049;49.468;11.200;2023-09-07T02:33:52;14.10;99.90
8008;DHT22;4049;49.468;11.200;2023-09-07T02:36:19;14.00;99.90
8008;DHT22;4049;49.468;11.200;2023-09-07T02:38:46;14.00;99.90
8008;DHT22;4049;49.468;11.200;2023-09-07T02:41:13;14.00;99.90
8008;DHT22;4049;49.468;11.200;2023-09-07T02:43:39;13.90;99.90
8008;DHT22;4049;49.468;11.200;2023-09-07T02:46:06;13.90;99.90
8008;DHT22;4049;49.468;11.200;2023-09-07T02:48:37;13.90;99.90
8008;DHT22;4049;49.468;11.200;2023-09-07T02:51:04;13.90;99.90
8008;DHT22;4049;49.468;11.200;2023-09-07T02:53:31;13.80;99.90
8008;DHT22;4049;49.468;11.200;2023-09-07T02:55:58;13.80;99.90
8008;DHT22;4049;49.468;11.200;2023-09-07T02:58:27;13.80;99.90
8008;DHT22;4049;49.468;11.200;2023-09-07T03:00:54;13.80;99.90
8008;DHT22;4049;49.468;11.200;2023-09-07T03:03:21;13.80;99.90
8008;DHT22;4049;49.468;11.200;2023-09-07T03:05:49;13.70;99.90
8008;DHT22;4049;49.468;11.200;2023-09-07T03:08:17;13.70;99.90
8008;DHT22;4049;49.468;11.200;2023-09-07T03:10:47;13.70;99.90
8008;DHT22;4049;49.468;11.200;2023-09-07T03:13:13;13.60;99.90
8008;DHT22;4049;49.468;11.200;2023-09-07T03:15:40;13.60;99.90
8008;DHT22;4049;49.468;11.200;2023-09-07T03:18:07;13.60;99.90
8008;DHT22;4049;49.468;11.200;2023-09-07T03:20:34;13.50;99.90
8008;DHT22;4049;49.468;11.200;2023-09-07T03:23:02;13.50;99.90
8008;DHT22;4049;49.468;11.200;2023-09-07T03:25:29;13.50;99.90
8008;DHT22;4049;49.468;11.200;2023-09-07T03:27:58;13.50;99.90
8008;DHT22;4049;49.468;11.200;2023-09-07T03:30:25;13.50;99.90
8008;DHT22;4049;49.468;11.200;2023-09-07T03:32:52;13.40;99.90
8008;DHT22;4049;49.468;11.200;2023-09-07T03:35:20;13.40;99.90
8008;DHT22;4049;49.468;11.200;2023-09-07T03:37:47;13.40;99.90
8008;DHT22;4049;49.468;11.200;2023-09-07T03:40:15;13.40;99.90
8008;DHT22;4049;49.468;11.200;2023-09-07T03:42:42;13.40;99.90
8008;DHT22;4049;49.468;11.200;2023-09-07T03:45:11;13.30;99.90
8008;DHT22;4049;49.468;11.200;2023-09-07T03:47:38;13.40;99.90
8008;DHT22;4049;49.468;11.200;2023-09-07T03:50:06;13.40;99.90
8008;DHT22;4049;49.468;11.200;2023-09-07T03:52:32;13.30;99.90
8008;DHT22;4049;49.468;11.200;2023-09-07T03:55:00;13.30;99.90
8008;DHT22;4049;49.468;11.200;2023-09-07T03:57:29;13.30;99.90
8008;DHT22;4049;49.468;11.200;2023-09-07T03:59:56;13.30;99.90
8008;DHT22;4049;49.468;11.200;2023-09-07T04:02:23;13.30;99.90
8008;DHT22;4049;49.468;11.200;2023-09-07T04:04:51;13.30;99.90
8008;DHT22;4049;49.468;11.200;2023-09-07T04:07:18;13.20;99.90
8008;DHT22;4049;49.468;11.200;2023-09-07T04:09:45;13.20;99.90
8008;DHT22;4049;49.468;11.200;2023-09-07T04:12:12;13.20;99.90
8008;DHT22;4049;49.468;11.200;2023-09-07T04:14:40;13.20;99.90
8008;DHT22;4049;49.468;11.200;2023-09-07T04:17:08;13.20;99.90
8008;DHT22;4049;49.468;11.200;2023-09-07T04:19:35;13.10;99.90
8008;DHT22;4049;49.468;11.200;2023-09-07T04:22:02;13.10;99.90
8008;DHT22;4049;49.468;11.200;2023-09-07T04:24:29;13.10;99.90
8008;DHT22;4049;49.468;11.200;2023-09-07T04:26:58;13.10;99.90
8008;DHT22;4049;49.468;11.200;2023-09-07T04:29:26;13.10;99.90
8008;DHT22;4049;49.468;11.200;2023-09-07T04:31:54;13.10;99.90
8008;DHT22;4049;49.468;11.200;2023-09-07T04:34:21;13.00;99.90
8008;DHT22;4049;49.468;11.200;2023-09-07T04:36:48;13.10;99.90
8008;DHT22;4049;49.468;11.200;2023-09-07T04:39:15;13.00;99.90
8008;DHT22;4049;49.468;11.200;2023-09-07T04:41:42;13.00;99.90
8008;DHT22;4049;49.468;11.200;2023-09-07T04:44:09;13.00;99.90
8008;DHT22;4049;49.468;11.200;2023-09-07T04:46:36;13.00;99.90
8008;DHT22;4049;49.468;11.200;2023-09-07T04:49:04;13.00;99.90
8008;DHT22;4049;49.468;11.200;2023-09-07T04:51:30;13.00;99.90
8008;DHT22;4049;49.468;11.200;2023-09-07T04:53:57;13.00;99.90
8008;DHT22;4049;49.468;11.200;2023-09-07T04:56:24;13.00;99.90
8008;DHT22;4049;49.468;11.200;2023-09-07T04:58:53;13.00;99.90
8008;DHT22;4049;49.468;11.200;2023-09-07T05:01:20;13.00;99.90
8008;DHT22;4049;49.468;11.200;2023-09-07T05:03:47;13.00;99.90
8008;DHT22;4049;49.468;11.200;2023-09-07T05:06:15;13.00;99.90
8008;DHT22;4049;49.468;11.200;2023-09-07T05:08:42;13.00;99.90
8008;DHT22;4049;49.468;11.200;2023-09-07T05:11:09;12.90;99.90
8008;DHT22;4049;49.468;11.200;2023-09-07T05:13:35;12.90;99.90
8008;DHT22;4049;49.468;11.200;2023-09-07T05:16:02;13.00;99.90
8008;DHT22;4049;49.468;11.200;2023-09-07T05:18:30;12.90;99.90
8008;DHT22;4049;49.468;11.200;2023-09-07T05:20:57;12.90;99.90
8008;DHT22;4049;49.468;11.200;2023-09-07T05:23:25;13.00;99.90
8008;DHT22;4049;49.468;11.200;2023-09-07T05:25:53;13.00;99.90
8008;DHT22;4049;49.468;11.200;2023-09-07T05:28:21;13.00;99.90
8008;DHT22;4049;49.468;11.200;2023-09-07T05:30:48;13.00;99.90
8008;DHT22;4049;49.468;11.200;2023-09-07T05:33:16;12.90;99.90
8008;DHT22;4049;49.468;11.200;2023-09-07T05:35:44;13.00;99.90
8008;DHT22;4049;49.468;11.200;2023-09-07T05:38:12;13.00;99.90
8008;DHT22;4049;49.468;11.200;2023-09-07T05:40:42;13.00;99.90
8008;DHT22;4049;49.468;11.200;2023-09-07T05:43:09;13.00;99.90
8008;DHT22;4049;49.468;11.200;2023-09-07T05:45:38;13.00;99.90
8008;DHT22;4049;49.468;11.200;2023-09-07T05:48:06;13.10;99.90
8008;DHT22;4049;49.468;11.200;2023-09-07T05:50:35;13.10;99.90
8008;DHT22;4049;49.468;11.200;2023-09-07T05:53:03;13.10;99.90
8008;DHT22;4049;49.468;11.200;2023-09-07T05:55:31;13.20;99.90
8008;DHT22;4049;49.468;11.200;2023-09-07T05:57:59;13.20;99.90
8008;DHT22;4049;49.468;11.200;2023-09-07T06:00:26;13.20;99.90
8008;DHT22;4049;49.468;11.200;2023-09-07T06:02:53;13.30;99.90
8008;DHT22;4049;49.468;11.200;2023-09-07T06:05:20;13.30;99.90
8008;DHT22;4049;49.468;11.200;2023-09-07T06:07:47;13.30;99.90
8008;DHT22;4049;49.468;11.200;2023-09-07T06:10:14;13.40;99.90
8008;DHT22;4049;49.468;11.200;2023-09-07T06:12:41;13.50;99.90
8008;DHT22;4049;49.468;11.200;2023-09-07T06:15:09;13.50;99.90
8008;DHT22;4049;49.468;11.200;2023-09-07T06:17:37;13.60;99.90
8008;DHT22;4049;49.468;11.200;2023-09-07T06:20:07;13.60;99.90
8008;DHT22;4049;49.468;11.200;2023-09-07T06:22:34;13.70;99.90
8008;DHT22;4049;49.468;11.200;2023-09-07T06:25:01;13.80;99.90
8008;DHT22;4049;49.468;11.200;2023-09-07T06:27:28;13.90;99.90
8008;DHT22;4049;49.468;11.200;2023-09-07T06:29:55;13.90;99.90
8008;DHT22;4049;49.468;11.200;2023-09-07T06:32:23;14.00;99.90
8008;DHT22;4049;49.468;11.200;2023-09-07T06:34:50;14.10;99.90
8008;DHT22;4049;49.468;11.200;2023-09-07T06:37:17;14.20;99.90
8008;DHT22;4049;49.468;11.200;2023-09-07T06:39:44;14.30;99.90
8008;DHT22;4049;49.468;11.200;2023-09-07T06:42:11;14.40;99.90
8008;DHT22;4049;49.468;11.200;2023-09-07T06:44:38;14.40;99.90
8008;DHT22;4049;49.468;11.200;2023-09-07T06:47:05;14.50;99.90
8008;DHT22;4049;49.468;11.200;2023-09-07T06:49:33;14.60;99.90
8008;DHT22;4049;49.468;11.200;2023-09-07T06:52:00;14.70;99.90
8008;DHT22;4049;49.468;11.200;2023-09-07T06:54:28;14.80;99.90
8008;DHT22;4049;49.468;11.200;2023-09-07T06:56:55;14.90;99.90
8008;DHT22;4049;49.468;11.200;2023-09-07T06:59:22;15.00;99.90
8008;DHT22;4049;49.468;11.200;2023-09-07T07:01:49;15.10;99.90
8008;DHT22;4049;49.468;11.200;2023-09-07T07:04:15;15.20;99.90
8008;DHT22;4049;49.468;11.200;2023-09-07T07:06:44;15.30;99.90
8008;DHT22;4049;49.468;11.200;2023-09-07T07:09:10;15.40;99.90
8008;DHT22;4049;49.468;11.200;2023-09-07T07:11:37;15.50;99.90
8008;DHT22;4049;49.468;11.200;2023-09-07T07:14:04;15.60;99.90
8008;DHT22;4049;49.468;11.200;2023-09-07T07:16:31;15.60;99.90
8008;DHT22;4049;49.468;11.200;2023-09-07T07:18:58;15.70;99.90
8008;DHT22;4049;49.468;11.200;2023-09-07T07:21:25;15.80;99.90
8008;DHT22;4049;49.468;11.200;2023-09-07T07:23:53;15.90;99.90
8008;DHT22;4049;49.468;11.200;2023-09-07T07:26:20;16.00;99.90
8008;DHT22;4049;49.468;11.200;2023-09-07T07:28:46;16.10;99.90
8008;DHT22;4049;49.468;11.200;2023-09-07T07:31:13;16.20;99.90
8008;DHT22;4049;49.468;11.200;2023-09-07T07:33:40;16.30;99.90
8008;DHT22;4049;49.468;11.200;2023-09-07T07:36:07;16.40;99.90
8008;DHT22;4049;49.468;11.200;2023-09-07T07:38:34;16.50;99.90
8008;DHT22;4049;49.468;11.200;2023-09-07T07:41:02;16.50;99.90
8008;DHT22;4049;49.468;11.200;2023-09-07T07:43:29;16.60;99.90
8008;DHT22;4049;49.468;11.200;2023-09-07T07:45:56;16.70;99.90
8008;DHT22;4049;49.468;11.200;2023-09-07T07:48:23;16.80;99.90
8008;DHT22;4049;49.468;11.200;2023-09-07T07:50:51;16.90;99.90
8008;DHT22;4049;49.468;11.200;2023-09-07T07:53:18;17.00;99.90
8008;DHT22;4049;49.468;11.200;2023-09-07T07:55:48;17.10;99.90
8008;DHT22;4049;49.468;11.200;2023-09-07T07:58:16;17.20;99.90
8008;DHT22;4049;49.468;11.200;2023-09-07T08:00:43;17.30;99.90
8008;DHT22;4049;49.468;11.200;2023-09-07T08:03:13;17.40;99.90
8008;DHT22;4049;49.468;11.200;2023-09-07T08:05:39;17.50;99.90
8008;DHT22;4049;49.468;11.200;2023-09-07T08:08:07;17.60;99.90
8008;DHT22;4049;49.468;11.200;2023-09-07T08:10:34;17.70;99.90
8008;DHT22;4049;49.468;11.200;2023-09-07T08:13:02;17.70;99.90
8008;DHT22;4049;49.468;11.200;2023-09-07T08:15:32;17.80;99.90
8008;DHT22;4049;49.468;11.200;2023-09-07T08:17:59;17.90;99.90
8008;DHT22;4049;49.468;11.200;2023-09-07T08:20:26;18.00;99.90
8008;DHT22;4049;49.468;11.200;2023-09-07T08:22:53;18.10;99.90
8008;DHT22;4049;49.468;11.200;2023-09-07T08:25:20;18.20;99.90
8008;DHT22;4049;49.468;11.200;2023-09-07T08:27:47;18.30;99.90
8008;DHT22;4049;49.468;11.200;2023-09-07T08:30:16;18.40;99.90
8008;DHT22;4049;49.468;11.200;2023-09-07T08:32:45;18.40;99.90
8008;DHT22;4049;49.468;11.200;2023-09-07T08:35:13;18.50;99.90
8008;DHT22;4049;49.468;11.200;2023-09-07T08:37:40;18.60;99.90
8008;DHT22;4049;49.468;11.200;2023-09-07T08:40:08;18.70;99.90
8008;DHT22;4049;49.468;11.200;2023-09-07T08:42:37;18.80;99.90
8008;DHT22;4049;49.468;11.200;2023-09-07T08:45:05;18.90;99.90
8008;DHT22;4049;49.468;11.200;2023-09-07T08:47:35;19.00;99.90
8008;DHT22;4049;49.468;11.200;2023-09-07T08:50:05;19.10;99.90
8008;DHT22;4049;49.468;11.200;2023-09-07T08:52:33;19.30;99.90
8008;DHT22;4049;49.468;11.200;2023-09-07T08:55:01;19.30;99.90
8008;DHT22;4049;49.468;11.200;2023-09-07T08:57:30;19.40;99.90
8008;DHT22;4049;49.468;11.200;2023-09-07T08:59:58;19.50;99.90
8008;DHT22;4049;49.468;11.200;2023-09-07T09:02:24;19.60;99.90
8008;DHT22;4049;49.468;11.200;2023-09-07T09:04:51;19.70;99.90
8008;DHT22;4049;49.468;11.200;2023-09-07T09:07:20;19.70;99.90
8008;DHT22;4049;49.468;11.200;2023-09-07T09:09:47;19.80;99.90
8008;DHT22;4049;49.468;11.200;2023-09-07T09:12:15;19.90;99.90
8008;DHT22;4049;49.468;11.200;2023-09-07T09:14:42;19.90;99.90
8008;DHT22;4049;49.468;11.200;2023-09-07T09:17:12;20.00;99.90
8008;DHT22;4049;49.468;11.200;2023-09-07T09:19:39;20.10;99.90
8008;DHT22;4049;49.468;11.200;2023-09-07T09:22:06;20.10;99.90
8008;DHT22;4049;49.468;11.200;2023-09-07T12:26:46;26.50;93.40
8008;DHT22;4049;49.468;11.200;2023-09-07T12:29:13;26.50;93.40
8008;DHT22;4049;49.468;11.200;2023-09-07T12:31:39;26.60;94.20
8008;DHT22;4049;49.468;11.200;2023-09-07T12:34:06;26.70;91.00
8008;DHT22;4049;49.468;11.200;2023-09-07T12:36:34;26.80;92.90
8008;DHT22;4049;49.468;11.200;2023-09-07T12:39:01;26.80;92.60
8008;DHT22;4049;49.468;11.200;2023-09-07T12:41:29;26.90;91.50
8008;DHT22;4049;49.468;11.200;2023-09-07T12:43:58;26.90;92.40
8008;DHT22;4049;49.468;11.200;2023-09-07T12:46:25;27.00;91.50
8008;DHT22;4049;49.468;11.200;2023-09-07T12:48:52;27.00;92.10
8008;DHT22;4049;49.468;11.200;2023-09-07T12:51:18;27.00;92.30
8008;DHT22;4049;49.468;11.200;2023-09-07T12:53:45;27.10;91.80
8008;DHT22;4049;49.468;11.200;2023-09-07T12:56:12;27.10;91.00
8008;DHT22;4049;49.468;11.200;2023-09-07T12:58:41;27.20;89.00
8008;DHT22;4049;49.468;11.200;2023-09-07T13:01:09;27.20;89.60
8008;DHT22;4049;49.468;11.200;2023-09-07T13:03:37;27.30;89.30
8008;DHT22;4049;49.468;11.200;2023-09-07T13:06:04;27.40;88.80
8008;DHT22;4049;49.468;11.200;2023-09-07T13:08:31;27.40;86.50
8008;DHT22;4049;49.468;11.200;2023-09-07T13:10:58;27.40;89.90
8008;DHT22;4049;49.468;11.200;2023-09-07T13:13:25;27.40;86.30
8008;DHT22;4049;49.468;11.200;2023-09-07T13:15:54;27.40;86.70
8008;DHT22;4049;49.468;11.200;2023-09-07T13:18:22;27.50;88.00
8008;DHT22;4049;49.468;11.200;2023-09-07T13:20:50;27.50;86.00
8008;DHT22;4049;49.468;11.200;2023-09-07T13:23:17;27.60;86.00
8008;DHT22;4049;49.468;11.200;2023-09-07T13:25:44;27.60;83.90
8008;DHT22;4049;49.468;11.200;2023-09-07T13:28:11;27.70;87.20
8008;DHT22;4049;49.468;11.200;2023-09-07T13:30:38;27.80;82.20
8008;DHT22;4049;49.468;11.200;2023-09-07T13:33:05;27.80;80.60
8008;DHT22;4049;49.468;11.200;2023-09-07T13:35:34;28.00;81.50
8008;DHT22;4049;49.468;11.200;2023-09-07T13:38:01;28.00;78.60
8008;DHT22;4049;49.468;11.200;2023-09-07T13:40:28;28.10;77.60
8008;DHT22;4049;49.468;11.200;2023-09-07T13:42:55;28.30;78.40
8008;DHT22;4049;49.468;11.200;2023-09-07T13:45:22;28.30;77.70
8008;DHT22;4049;49.468;11.200;2023-09-07T13:47:49;28.50;75.40
8008;DHT22;4049;49.468;11.200;2023-09-07T13:50:16;28.60;76.10
8008;DHT22;4049;49.468;11.200;2023-09-07T13:52:44;28.70;73.00
8008;DHT22;4049;49.468;11.200;2023-09-07T13:55:11;28.80;72.40
8008;DHT22;4049;49.468;11.200;2023-09-07T13:57:38;28.90;73.10
8008;DHT22;4049;49.468;11.200;2023-09-07T14:00:05;29.10;70.10
8008;DHT22;4049;49.468;11.200;2023-09-07T14:02:32;29.20;68.90
8008;DHT22;4049;49.468;11.200;2023-09-07T14:04:59;29.30;68.80
8008;DHT22;4049;49.468;11.200;2023-09-07T14:07:26;29.40;70.00
8008;DHT22;4049;49.468;11.200;2023-09-07T14:09:55;29.50;67.60
8008;DHT22;4049;49.468;11.200;2023-09-07T14:12:22;29.70;66.50
8008;DHT22;4049;49.468;11.200;2023-09-07T14:14:49;29.70;61.10
8008;DHT22;4049;49.468;11.200;2023-09-07T14:17:16;29.80;62.50
8008;DHT22;4049;49.468;11.200;2023-09-07T14:19:42;29.90;61.90
8008;DHT22;4049;49.468;11.200;2023-09-07T14:22:11;29.90;63.10
8008;DHT22;4049;49.468;11.200;2023-09-07T14:24:38;29.90;63.20
8008;DHT22;4049;49.468;11.200;2023-09-07T14:27:06;29.80;63.40
8008;DHT22;4049;49.468;11.200;2023-09-07T14:29:34;29.90;62.90
8008;DHT22;4049;49.468;11.200;2023-09-07T14:32:01;29.80;60.20
8008;DHT22;4049;49.468;11.200;2023-09-07T14:34:28;29.70;60.50
8008;DHT22;4049;49.468;11.200;2023-09-07T14:36:55;29.60;61.90
8008;DHT22;4049;49.468;11.200;2023-09-07T14:39:22;29.40;60.30
8008;DHT22;4049;49.468;11.200;2023-09-07T14:41:49;29.30;59.30
8008;DHT22;4049;49.468;11.200;2023-09-07T14:44:20;29.20;58.30
8008;DHT22;4049;49.468;11.200;2023-09-07T14:46:47;29.10;60.00
8008;DHT22;4049;49.468;11.200;2023-09-07T14:49:15;29.00;60.80
8008;DHT22;4049;49.468;11.200;2023-09-07T14:51:43;28.90;57.50
8008;DHT22;4049;49.468;11.200;2023-09-07T14:54:10;28.90;58.50
8008;DHT22;4049;49.468;11.200;2023-09-07T14:56:38;28.80;58.70
8008;DHT22;4049;49.468;11.200;2023-09-07T14:59:05;28.70;58.60
8008;DHT22;4049;49.468;11.200;2023-09-07T15:01:34;28.60;59.30
8008;DHT22;4049;49.468;11.200;2023-09-07T15:04:01;28.60;59.10
8008;DHT22;4049;49.468;11.200;2023-09-07T15:06:28;28.60;60.60
8008;DHT22;4049;49.468;11.200;2023-09-07T15:08:58;28.50;59.60
8008;DHT22;4049;49.468;11.200;2023-09-07T15:11:25;28.50;60.00
8008;DHT22;4049;49.468;11.200;2023-09-07T15:13:52;28.50;62.00
8008;DHT22;4049;49.468;11.200;2023-09-07T15:16:20;28.50;59.60
8008;DHT22;4049;49.468;11.200;2023-09-07T15:18:49;28.50;59.30
8008;DHT22;4049;49.468;11.200;2023-09-07T15:21:18;28.40;59.90
8008;DHT22;4049;49.468;11.200;2023-09-07T15:23:44;28.40;60.00
8008;DHT22;4049;49.468;11.200;2023-09-07T15:26:12;28.40;59.60
8008;DHT22;4049;49.468;11.200;2023-09-07T15:28:39;28.40;60.60
8008;DHT22;4049;49.468;11.200;2023-09-07T15:31:06;28.30;59.10
8008;DHT22;4049;49.468;11.200;2023-09-07T15:33:33;28.30;58.80
8008;DHT22;4049;49.468;11.200;2023-09-07T15:36:02;28.30;59.20
8008;DHT22;4049;49.468;11.200;2023-09-07T15:38:28;28.30;58.60
8008;DHT22;4049;49.468;11.200;2023-09-07T15:40:55;28.20;58.40
8008;DHT22;4049;49.468;11.200;2023-09-07T15:43:23;28.20;58.90
8008;DHT22;4049;49.468;11.200;2023-09-07T15:45:51;28.10;59.40
8008;DHT22;4049;49.468;11.200;2023-09-07T15:48:19;28.10;59.10
8008;DHT22;4049;49.468;11.200;2023-09-07T15:50:46;28.00;56.90
8008;DHT22;4049;49.468;11.200;2023-09-07T15:53:15;28.00;58.30
8008;DHT22;4049;49.468;11.200;2023-09-07T15:55:42;27.90;58.50
8008;DHT22;4049;49.468;11.200;2023-09-07T15:58:09;27.90;58.90
8008;DHT22;4049;49.468;11.200;2023-09-07T16:00:36;27.80;59.50
8008;DHT22;4049;49.468;11.200;2023-09-07T16:03:03;27.80;60.20
8008;DHT22;4049;49.468;11.200;2023-09-07T16:05:30;27.70;61.70
8008;DHT22;4049;49.468;11.200;2023-09-07T16:07:57;27.60;61.10
8008;DHT22;4049;49.468;11.200;2023-09-07T16:10:26;27.60;59.60
8008;DHT22;4049;49.468;11.200;2023-09-07T16:12:53;27.50;61.10
8008;DHT22;4049;49.468;11.200;2023-09-07T16:15:20;27.40;61.30
8008;DHT22;4049;49.468;11.200;2023-09-07T16:17:47;27.30;62.60
8008;DHT22;4049;49.468;11.200;2023-09-07T16:20:15;27.30;62.70
8008;DHT22;4049;49.468;11.200;2023-09-07T16:22:41;27.20;62.50
8008;DHT22;4049;49.468;11.200;2023-09-07T16:25:08;27.10;63.10
8008;DHT22;4049;49.468;11.200;2023-09-07T16:27:37;27.10;63.40
8008;DHT22;4049;49.468;11.200;2023-09-07T16:30:07;27.00;63.40
8008;DHT22;4049;49.468;11.200;2023-09-07T16:32:34;27.00;62.90
8008;DHT22;4049;49.468;11.200;2023-09-07T16:35:03;26.90;63.20
8008;DHT22;4049;49.468;11.200;2023-09-07T16:37:30;26.80;64.30
8008;DHT22;4049;49.468;11.200;2023-09-07T16:39:57;26.70;65.50
8008;DHT22;4049;49.468;11.200;2023-09-07T16:42:24;26.70;65.90
8008;DHT22;4049;49.468;11.200;2023-09-07T16:44:53;26.60;66.00
8008;DHT22;4049;49.468;11.200;2023-09-07T16:47:20;26.50;66.10
8008;DHT22;4049;49.468;11.200;2023-09-07T16:49:47;26.50;66.60
8008;DHT22;4049;49.468;11.200;2023-09-07T16:52:14;26.40;66.70
8008;DHT22;4049;49.468;11.200;2023-09-07T16:54:41;26.40;67.60
8008;DHT22;4049;49.468;11.200;2023-09-07T16:57:09;26.30;69.00
8008;DHT22;4049;49.468;11.200;2023-09-07T16:59:36;26.20;69.70
8008;DHT22;4049;49.468;11.200;2023-09-07T17:02:05;26.20;71.00
8008;DHT22;4049;49.468;11.200;2023-09-07T17:04:33;26.10;72.90
8008;DHT22;4049;49.468;11.200;2023-09-07T17:07:01;26.00;72.90
8008;DHT22;4049;49.468;11.200;2023-09-07T17:09:29;25.90;74.20
8008;DHT22;4049;49.468;11.200;2023-09-07T17:11:56;25.90;74.70
8008;DHT22;4049;49.468;11.200;2023-09-07T17:14:24;25.80;75.90
8008;DHT22;4049;49.468;11.200;2023-09-07T17:16:51;25.70;77.60
8008;DHT22;4049;49.468;11.200;2023-09-07T17:19:23;25.70;79.10
8008;DHT22;4049;49.468;11.200;2023-09-07T17:21:51;25.60;81.70
8008;DHT22;4049;49.468;11.200;2023-09-07T17:24:18;25.50;81.70
8008;DHT22;4049;49.468;11.200;2023-09-07T17:26:45;25.50;82.50
8008;DHT22;4049;49.468;11.200;2023-09-07T17:29:12;25.40;84.50
8008;DHT22;4049;49.468;11.200;2023-09-07T17:31:39;25.30;85.80
8008;DHT22;4049;49.468;11.200;2023-09-07T17:34:06;25.20;87.90
8008;DHT22;4049;49.468;11.200;2023-09-07T17:36:34;25.10;89.40
8008;DHT22;4049;49.468;11.200;2023-09-07T17:39:01;25.00;90.50
8008;DHT22;4049;49.468;11.200;2023-09-07T17:41:29;25.00;90.90
8008;DHT22;4049;49.468;11.200;2023-09-07T17:43:57;24.90;91.70
8008;DHT22;4049;49.468;11.200;2023-09-07T17:46:24;24.80;92.40
8008;DHT22;4049;49.468;11.200;2023-09-07T17:48:51;24.70;92.90
8008;DHT22;4049;49.468;11.200;2023-09-07T17:51:19;24.60;93.90
8008;DHT22;4049;49.468;11.200;2023-09-07T17:53:49;24.60;94.00
8008;DHT22;4049;49.468;11.200;2023-09-07T17:56:15;24.50;94.90
8008;DHT22;4049;49.468;11.200;2023-09-07T17:58:43;24.40;95.20
8008;DHT22;4049;49.468;11.200;2023-09-07T18:01:10;24.30;95.30
8008;DHT22;4049;49.468;11.200;2023-09-07T18:03:37;24.20;95.20
8008;DHT22;4049;49.468;11.200;2023-09-07T18:06:04;24.20;95.80
8008;DHT22;4049;49.468;11.200;2023-09-07T18:08:31;24.10;95.90
8008;DHT22;4049;49.468;11.200;2023-09-07T18:11:00;24.00;96.40
8008;DHT22;4049;49.468;11.200;2023-09-07T18:13:27;23.90;97.60
8008;DHT22;4049;49.468;11.200;2023-09-07T18:15:54;23.80;99.00
8008;DHT22;4049;49.468;11.200;2023-09-07T18:18:21;23.70;99.90
8008;DHT22;4049;49.468;11.200;2023-09-07T18:20:48;23.60;99.90
8008;DHT22;4049;49.468;11.200;2023-09-07T18:23:15;23.60;99.90
8008;DHT22;4049;49.468;11.200;2023-09-07T18:25:43;23.50;99.90
8008;DHT22;4049;49.468;11.200;2023-09-07T18:28:11;23.40;99.90
8008;DHT22;4049;49.468;11.200;2023-09-07T18:30:40;23.30;99.90
8008;DHT22;4049;49.468;11.200;2023-09-07T18:33:07;23.20;99.90
8008;DHT22;4049;49.468;11.200;2023-09-07T18:35:34;23.10;99.90
8008;DHT22;4049;49.468;11.200;2023-09-07T18:38:01;23.00;99.90
8008;DHT22;4049;49.468;11.200;2023-09-07T18:40:28;23.00;99.90
8008;DHT22;4049;49.468;11.200;2023-09-07T18:42:55;22.90;99.90
8008;DHT22;4049;49.468;11.200;2023-09-07T18:45:24;22.70;99.90
8008;DHT22;4049;49.468;11.200;2023-09-07T18:47:51;22.60;99.90